Time;durP1;ratioP1;P1;durP2;ratioP2;P2;SDS_P1;SDS_P2;PMS_P1;PMS_P2;Temp;Humidity;BMP_temperature;BMP_pressure;BME280_temperature;BME280_humidity;BME280_pressure;Samples;Min_cycle;Max_cycle;Signal;HPM_P1;HPM_P2
2022/02/04 00:24:38;;;;;;;9.65;7.18;;;;;;;;;;4974081;28;20117;-66
2022/02/04 00:27:10;;;;;;;8.45;7.10;;;;;;;;;;4973767;28;20046;-67
2022/02/04 00:29:48;;;;;;;8.73;6.75;;;;;;;;;;4973688;28;20102;-66
2022/02/04 00:32:18;;;;;;;9.30;7.40;;;;;;;;;;4954580;28;20482;-66
2022/02/04 00:34:51;;;;;;;8.98;6.78;;;;;;;;;;4953852;28;20052;-66
2022/02/04 00:40:19;;;;;;;7.55;6.38;;;;;;;;;;4942881;28;20426;-67
2022/02/04 00:42:46;;;;;;;8.27;6.88;;;;;;;;;;4954204;28;20085;-68
2022/02/04 00:45:22;;;;;;;8.43;6.95;;;;;;;;;;4954245;28;20067;-65
2022/02/04 00:56:21;;;;;;;9.60;6.72;;;;;;;;;;4953963;28;20110;-66
2022/02/04 01:26:17;;;;;;;7.75;5.95;;;;;;;;;;4973201;28;20117;-65
2022/02/04 01:28:46;;;;;;;6.45;5.47;;;;;;;;;;4972877;28;20391;-66
2022/02/04 01:31:18;;;;;;;6.60;5.10;;;;;;;;;;4972766;28;20051;-66
2022/02/04 01:33:46;;;;;;;9.02;5.88;;;;;;;;;;4972642;28;20047;-66
2022/02/04 01:36:13;;;;;;;6.70;5.22;;;;;;;;;;4972825;28;20046;-66
2022/02/04 01:38:40;;;;;;;8.32;5.88;;;;;;;;;;4972893;28;20506;-67
2022/02/04 01:41:08;;;;;;;5.63;4.82;;;;;;;;;;4972680;28;20055;-66
2022/02/04 01:43:35;;;;;;;8.00;6.07;;;;;;;;;;4972529;28;20111;-66
2022/02/04 01:46:04;;;;;;;8.13;5.25;;;;;;;;;;4972667;28;20130;-66
2022/02/04 01:48:31;;;;;;;6.78;5.13;;;;;;;;;;4975197;28;20051;-67
2022/02/04 01:50:58;;;;;;;6.88;5.30;;;;;;;;;;4976723;28;20110;-66
2022/02/04 01:53:28;;;;;;;6.22;4.63;;;;;;;;;;4976659;28;20054;-65
2022/02/04 01:55:56;;;;;;;8.30;5.55;;;;;;;;;;4976816;28;20486;-66
2022/02/04 01:58:23;;;;;;;6.88;4.82;;;;;;;;;;4976133;28;20568;-66
2022/02/04 02:00:50;;;;;;;6.88;5.03;;;;;;;;;;4976640;28;20512;-67
2022/02/04 02:03:18;;;;;;;9.55;5.03;;;;;;;;;;4976535;28;20082;-66
2022/02/04 02:05:44;;;;;;;7.18;4.80;;;;;;;;;;4991240;28;20490;-67
2022/02/04 02:08:13;;;;;;;7.95;5.65;;;;;;;;;;4976239;28;20055;-66
2022/02/04 02:10:40;;;;;;;7.45;5.38;;;;;;;;;;4976290;28;20059;-66
2022/02/04 02:15:55;;;;;;;7.07;5.13;;;;;;;;;;4976290;28;20097;-66
2022/02/04 02:59:09;;;;;;;10.40;6.78;;;;;;;;;;4985353;28;20114;-66
2022/02/04 03:01:36;;;;;;;8.65;5.78;;;;;;;;;;4985602;28;20055;-67
2022/02/04 03:04:08;;;;;;;11.88;6.45;;;;;;;;;;4985776;28;20070;-66
2022/02/04 03:06:34;;;;;;;8.50;6.85;;;;;;;;;;4986009;28;20051;-67
2022/02/04 03:09:01;;;;;;;10.63;6.80;;;;;;;;;;4985982;28;20113;-66
2022/02/04 03:11:29;;;;;;;11.05;6.35;;;;;;;;;;4985737;28;20055;-66
2022/02/04 03:13:55;;;;;;;10.65;6.65;;;;;;;;;;4984740;28;20050;-66
2022/02/04 03:16:23;;;;;;;10.50;7.45;;;;;;;;;;4977675;28;20058;-66
2022/02/04 03:41:32;;;;;;;7.53;5.43;;;;;;;;;;4984256;28;20070;-66
2022/02/04 03:43:58;;;;;;;6.85;5.18;;;;;;;;;;4977761;28;20054;-65
2022/02/04 03:46:25;;;;;;;10.05;6.30;;;;;;;;;;4975100;28;20051;-67
2022/02/04 03:48:52;;;;;;;8.73;5.95;;;;;;;;;;4974512;28;20502;-66
2022/02/04 03:51:18;;;;;;;11.55;5.80;;;;;;;;;;4974816;28;20073;-66
2022/02/04 03:53:45;;;;;;;10.00;5.95;;;;;;;;;;4974481;28;20051;-67
2022/02/04 03:56:11;;;;;;;11.57;6.00;;;;;;;;;;4974574;28;20046;-66
2022/02/04 03:58:38;;;;;;;10.02;6.00;;;;;;;;;;4974469;28;20450;-66
2022/02/04 04:01:05;;;;;;;7.47;5.57;;;;;;;;;;4974212;28;20046;-66
2022/02/04 04:03:32;;;;;;;9.95;6.38;;;;;;;;;;4974300;28;20521;-67
2022/02/04 04:05:58;;;;;;;7.53;5.45;;;;;;;;;;4974664;28;20050;-65
2022/02/04 04:08:25;;;;;;;8.82;7.07;;;;;;;;;;4975056;28;20133;-66
2022/02/04 04:10:52;;;;;;;9.57;6.05;;;;;;;;;;4974225;28;20086;-67
2022/02/04 04:13:19;;;;;;;10.65;7.00;;;;;;;;;;4975530;28;20083;-66
2022/02/04 04:15:46;;;;;;;8.48;5.97;;;;;;;;;;4977116;28;20051;-65
2022/02/04 04:18:13;;;;;;;9.73;5.65;;;;;;;;;;4974424;28;20054;-65
2022/02/04 04:20:41;;;;;;;9.45;6.45;;;;;;;;;;4979489;28;20102;-66
2022/02/04 04:23:08;;;;;;;7.75;5.85;;;;;;;;;;4959519;28;20059;-67
2022/02/04 04:25:35;;;;;;;9.88;6.47;;;;;;;;;;4954598;28;20071;-66
2022/02/04 04:28:02;;;;;;;8.75;5.75;;;;;;;;;;4969213;28;20051;-65
2022/02/04 04:30:28;;;;;;;7.88;5.90;;;;;;;;;;4954543;28;20051;-66
2022/02/04 04:32:56;;;;;;;9.43;6.10;;;;;;;;;;4954161;28;20062;-66
2022/02/04 04:35:25;;;;;;;8.13;6.10;;;;;;;;;;4954137;29;20043;-68
2022/02/04 05:31:18;;;;;;;9.38;7.05;;;;;;;;;;4978128;28;20078;-68
2022/02/04 05:33:45;;;;;;;9.57;7.00;;;;;;;;;;4978458;28;20100;-70
2022/02/04 05:36:11;;;;;;;9.32;7.20;;;;;;;;;;4977310;28;20055;-69
2022/02/04 05:38:40;;;;;;;11.25;7.60;;;;;;;;;;4977669;28;20050;-68
2022/02/04 05:41:09;;;;;;;10.30;7.82;;;;;;;;;;4978226;28;20092;-68
2022/02/04 05:43:39;;;;;;;10.32;8.00;;;;;;;;;;4977522;28;20047;-68
2022/02/04 05:48:35;;;;;;;11.38;7.55;;;;;;;;;;4997632;23;20098;-68
2022/02/04 05:53:52;;;;;;;8.82;7.25;;;;;;;;;;4972354;28;20051;-68
2022/02/04 06:02:23;;;;;;;10.65;7.45;;;;;;;;;;4972204;28;20054;-67
2022/02/04 06:07:16;;;;;;;11.13;8.35;;;;;;;;;;4970075;28;20082;-68
2022/02/04 06:15:08;;;;;;;14.65;9.27;;;;;;;;;;4971902;28;20055;-67
2022/02/04 06:23:13;;;;;;;9.70;7.68;;;;;;;;;;4971855;28;20225;-66
2022/02/04 06:25:40;;;;;;;12.48;8.27;;;;;;;;;;4971340;28;20070;-67
2022/02/04 06:28:07;;;;;;;9.57;7.40;;;;;;;;;;4971552;28;20051;-68
2022/02/04 06:30:34;;;;;;;9.35;7.00;;;;;;;;;;4971725;28;20105;-69
2022/02/04 06:33:01;;;;;;;8.68;6.53;;;;;;;;;;4967266;28;20057;-69
2022/02/04 06:35:29;;;;;;;10.73;7.25;;;;;;;;;;4973865;28;20106;-69
2022/02/04 06:37:57;;;;;;;8.45;5.90;;;;;;;;;;4975056;28;20046;-69
2022/02/04 06:40:24;;;;;;;8.13;6.43;;;;;;;;;;4975504;28;20058;-69
2022/02/04 06:42:50;;;;;;;9.57;6.93;;;;;;;;;;4975477;28;20113;-70
2022/02/04 06:45:17;;;;;;;11.02;7.90;;;;;;;;;;4975769;28;20549;-70
2022/02/04 06:47:46;;;;;;;12.10;8.77;;;;;;;;;;4975317;28;20055;-68
2022/02/04 06:50:14;;;;;;;10.40;7.88;;;;;;;;;;4975650;28;20117;-68
2022/02/04 06:52:44;;;;;;;8.88;7.25;;;;;;;;;;4975468;28;20422;-69
2022/02/04 06:55:11;;;;;;;9.93;6.40;;;;;;;;;;4972984;28;20050;-68
2022/02/04 06:57:42;;;;;;;10.88;7.88;;;;;;;;;;4973296;28;20474;-69
2022/02/04 07:00:10;;;;;;;9.98;7.68;;;;;;;;;;4969961;28;20518;-68
2022/02/04 07:02:36;;;;;;;10.23;6.93;;;;;;;;;;4972571;28;20107;-68
2022/02/04 07:05:09;;;;;;;8.20;5.57;;;;;;;;;;4971829;28;20055;-65
2022/02/04 07:07:37;;;;;;;9.38;6.07;;;;;;;;;;4972320;28;20051;-68
2022/02/04 07:10:21;;;;;;;10.98;6.63;;;;;;;;;;4986004;28;20051;-69
2022/02/04 07:12:55;;;;;;;10.43;6.13;;;;;;;;;;4971772;28;20121;-69
2022/02/04 07:20:48;;;;;;;11.15;7.72;;;;;;;;;;4971534;28;20572;-69
2022/02/04 07:23:14;;;;;;;11.75;8.20;;;;;;;;;;4971547;28;20101;-69
2022/02/04 07:25:42;;;;;;;12.35;9.20;;;;;;;;;;4971878;28;20042;-68
2022/02/04 07:28:08;;;;;;;11.38;9.13;;;;;;;;;;4968539;28;20061;-68
2022/02/04 07:30:40;;;;;;;15.38;9.52;;;;;;;;;;4970632;28;20056;-68
2022/02/04 07:33:16;;;;;;;12.63;9.40;;;;;;;;;;4971312;28;20046;-68
2022/02/04 07:41:18;;;;;;;11.77;8.52;;;;;;;;;;4985293;28;20047;-69
2022/02/04 07:43:46;;;;;;;;;;;;;;;;;;4973023;28;20513;-69
2022/02/04 07:46:16;;;;;;;13.02;8.63;;;;;;;;;;4971074;28;19984;-69
2022/02/04 07:48:42;;;;;;;12.50;9.57;;;;;;;;;;4970675;28;20055;-68
2022/02/04 07:51:13;;;;;;;15.45;8.40;;;;;;;;;;4971671;28;20050;-69
2022/02/04 07:53:40;;;;;;;14.63;8.85;;;;;;;;;;4969950;28;20061;-68
2022/02/04 07:56:06;;;;;;;13.10;7.72;;;;;;;;;;4970984;28;20093;-68
2022/02/04 07:58:33;;;;;;;14.65;8.65;;;;;;;;;;4971132;28;20105;-68
2022/02/04 08:01:02;;;;;;;12.40;8.15;;;;;;;;;;4967258;28;20082;-67
2022/02/04 08:06:01;;;;;;;10.90;8.70;;;;;;;;;;4972192;28;20406;-67
2022/02/04 08:11:24;;;;;;;15.45;9.35;;;;;;;;;;4972137;28;20047;-68
2022/02/04 08:29:46;;;;;;;14.77;9.75;;;;;;;;;;4971693;28;20054;-68
2022/02/04 08:32:41;;;;;;;16.00;10.00;;;;;;;;;;4970024;28;20050;-67
2022/02/04 08:56:40;;;;;;;9.85;7.55;;;;;;;;;;4970767;28;20050;-68
2022/02/04 08:59:16;;;;;;;11.43;7.38;;;;;;;;;;4970988;28;20078;-68
2022/02/04 09:01:54;;;;;;;8.95;7.10;;;;;;;;;;4971489;28;20117;-68
2022/02/04 09:04:30;;;;;;;9.27;7.35;;;;;;;;;;4970283;28;20054;-68
2022/02/04 09:07:03;;;;;;;8.50;6.80;;;;;;;;;;4967668;28;20422;-67
2022/02/04 09:22:54;;;;;;;8.80;6.22;;;;;;;;;;4969042;28;20054;-73
2022/02/04 09:25:20;;;;;;;7.18;5.80;;;;;;;;;;4968566;28;20465;-68
2022/02/04 09:27:47;;;;;;;8.43;4.90;;;;;;;;;;4968579;28;20039;-68
2022/02/04 09:30:15;;;;;;;8.32;5.53;;;;;;;;;;4969125;28;20054;-69
2022/02/04 09:32:42;;;;;;;9.15;4.90;;;;;;;;;;4969249;28;20055;-70
2022/02/04 09:35:11;;;;;;;6.32;5.13;;;;;;;;;;4968880;28;20457;-66
2022/02/04 09:37:38;;;;;;;7.28;5.15;;;;;;;;;;4969389;28;20066;-67
2022/02/04 09:40:05;;;;;;;6.30;4.75;;;;;;;;;;4969205;28;20050;-70
2022/02/04 09:42:32;;;;;;;9.48;4.88;;;;;;;;;;4969483;28;20051;-68
2022/02/04 09:44:59;;;;;;;6.18;4.88;;;;;;;;;;4967605;28;20046;-69
2022/02/04 09:47:33;;;;;;;6.40;4.72;;;;;;;;;;4969545;28;20109;-67
2022/02/04 09:50:16;;;;;;;5.80;4.05;;;;;;;;;;4968110;28;20051;-68
2022/02/04 10:12:40;;;;;;;3.88;3.20;;;;;;;;;;4973158;28;20113;-67
2022/02/04 10:17:56;;;;;;;3.53;2.70;;;;;;;;;;4973851;28;20897;-67
2022/02/04 10:20:24;;;;;;;2.70;2.25;;;;;;;;;;4941118;28;20054;-69
2022/02/04 10:22:50;;;;;;;3.00;2.05;;;;;;;;;;4974886;28;20050;-68
2022/02/04 10:25:17;;;;;;;2.70;2.10;;;;;;;;;;4974614;28;20055;-68
2022/02/04 10:28:20;;;;;;;2.30;1.55;;;;;;;;;;4974381;28;20082;-68
2022/02/04 10:31:24;;;;;;;1.77;1.42;;;;;;;;;;4973780;28;20043;-67
2022/02/04 10:34:04;;;;;;;1.92;1.60;;;;;;;;;;4970280;28;20051;-67
2022/02/04 10:36:36;;;;;;;2.03;1.52;;;;;;;;;;4972795;28;20141;-68
2022/02/04 10:39:27;;;;;;;2.00;1.80;;;;;;;;;;4974035;28;20051;-67
2022/02/04 10:45:01;;;;;;;2.83;2.30;;;;;;;;;;4972267;28;20050;-67
2022/02/04 10:47:33;;;;;;;2.15;1.77;;;;;;;;;;4971701;28;20047;-70
2022/02/04 10:50:16;;;;;;;2.85;1.83;;;;;;;;;;4973863;28;20084;-69
2022/02/04 11:03:38;;;;;;;1.27;1.10;;;;;;;;;;4970903;28;20054;-68
2022/02/04 11:06:19;;;;;;;1.40;1.00;;;;;;;;;;4973556;28;20051;-70
2022/02/04 11:32:06;;;;;;;1.30;1.20;;;;;;;;;;4971535;28;20105;-68
2022/02/04 11:34:08;;;;;;;1.88;1.60;;;;;;;;;;4977908;28;20051;-67
2022/02/04 11:37:01;;;;;;;1.42;1.00;;;;;;;;;;4973545;28;20101;-68
2022/02/04 11:57:03;;;;;;;1.23;1.10;;;;;;;;;;4972699;28;20050;-67
2022/02/04 11:59:43;;;;;;;0.85;0.80;;;;;;;;;;4972408;28;20533;-70
2022/02/04 12:02:26;;;;;;;1.05;0.93;;;;;;;;;;4971717;28;20054;-67
2022/02/04 12:05:07;;;;;;;2.83;1.10;;;;;;;;;;4969901;28;20097;-67
2022/02/04 12:07:50;;;;;;;0.95;0.85;;;;;;;;;;4973091;28;20054;-67
2022/02/04 12:10:20;;;;;;;1.70;1.10;;;;;;;;;;4970902;28;20116;-67
2022/02/04 12:12:53;;;;;;;1.30;1.10;;;;;;;;;;4972328;28;20098;-65
2022/02/04 12:15:31;;;;;;;2.38;1.13;;;;;;;;;;4972180;28;20050;-69
2022/02/04 12:17:59;;;;;;;1.65;1.00;;;;;;;;;;4972209;28;20039;-70
2022/02/04 12:20:45;;;;;;;2.08;1.20;;;;;;;;;;4972574;28;20057;-70
2022/02/04 12:23:28;;;;;;;1.10;1.00;;;;;;;;;;4972269;28;20051;-70
2022/02/04 12:26:11;;;;;;;2.15;1.63;;;;;;;;;;4972653;28;20058;-68
2022/02/04 12:28:59;;;;;;;;;;;;;;;;;;4974390;28;20082;-68
2022/02/04 12:31:26;;;;;;;9.70;3.85;;;;;;;;;;4973092;28;19922;-70
2022/02/04 12:33:59;;;;;;;12.27;5.40;;;;;;;;;;4973639;28;20117;-69
2022/02/04 12:36:29;;;;;;;7.45;3.30;;;;;;;;;;4968604;28;20109;-67
2022/02/04 12:39:07;;;;;;;13.18;5.00;;;;;;;;;;4972302;28;20043;-66
2022/02/04 12:41:40;;;;;;;5.90;2.92;;;;;;;;;;4969938;28;20117;-67
2022/02/04 12:44:10;;;;;;;2.35;1.65;;;;;;;;;;4970452;28;20046;-67
2022/02/04 12:46:45;;;;;;;1.23;1.10;;;;;;;;;;4970927;28;20054;-70
2022/02/04 12:49:15;;;;;;;1.42;1.23;;;;;;;;;;4970800;28;20129;-66
2022/02/04 12:52:30;;;;;;;4.22;1.65;;;;;;;;;;4970896;28;20133;-68
2022/02/04 12:54:39;;;;;;;2.03;0.93;;;;;;;;;;4975870;28;20086;-69
2022/02/04 13:11:05;;;;;;;2.53;1.48;;;;;;;;;;4954124;28;20142;-67
2022/02/04 13:13:41;;;;;;;2.95;1.63;;;;;;;;;;4962842;28;20050;-69
2022/02/04 13:16:09;;;;;;;1.83;1.00;;;;;;;;;;4973518;28;20097;-67
2022/02/04 13:18:36;;;;;;;2.95;1.35;;;;;;;;;;4973737;28;20042;-67
2022/02/04 13:21:03;;;;;;;2.42;1.75;;;;;;;;;;4974084;28;20050;-66
2022/02/04 13:23:31;;;;;;;6.05;3.00;;;;;;;;;;4973593;28;20050;-66
2022/02/04 13:25:59;;;;;;;5.70;3.03;;;;;;;;;;4988903;28;20050;-66
2022/02/04 13:28:31;;;;;;;2.15;1.80;;;;;;;;;;4976605;28;20078;-69
2022/02/04 13:31:00;;;;;;;2.67;1.80;;;;;;;;;;4978730;28;20521;-67
2022/02/04 13:33:39;;;;;;;1.50;1.20;;;;;;;;;;4979782;28;20078;-68
2022/02/04 13:44:46;;;;;;;1.42;1.13;;;;;;;;;;4981785;28;20055;-67
2022/02/04 13:47:30;;;;;;;1.70;1.30;;;;;;;;;;4971245;28;20052;-68
2022/02/04 13:50:13;;;;;;;2.65;1.33;;;;;;;;;;4979420;28;20054;-67
2022/02/04 14:01:12;;;;;;;5.82;2.22;;;;;;;;;;4978944;28;20138;-68
2022/02/04 14:03:47;;;;;;;6.88;2.35;;;;;;;;;;4981044;28;20109;-68
2022/02/04 14:06:25;;;;;;;2.30;1.23;;;;;;;;;;4976418;28;20085;-66
2022/02/04 14:08:59;;;;;;;1.42;0.82;;;;;;;;;;4976389;28;20042;-68
2022/02/04 14:11:29;;;;;;;1.25;1.10;;;;;;;;;;4975371;28;20050;-67
2022/02/04 14:14:07;;;;;;;2.28;0.93;;;;;;;;;;4975815;28;20113;-66
2022/02/04 14:16:34;;;;;;;1.30;0.90;;;;;;;;;;4976592;28;20051;-66
2022/02/04 14:19:02;;;;;;;1.42;0.93;;;;;;;;;;4976046;28;20093;-68
2022/02/04 14:21:32;;;;;;;1.17;0.90;;;;;;;;;;4976329;28;20050;-66
2022/02/04 14:24:05;;;;;;;1.10;0.98;;;;;;;;;;4975861;28;20054;-66
2022/02/04 14:26:37;;;;;;;2.00;0.70;;;;;;;;;;4976321;28;20051;-66
2022/02/04 15:01:17;;;;;;;3.60;2.10;;;;;;;;;;4988116;28;20054;-69
2022/02/04 15:04:38;;;;;;;12.88;5.05;;;;;;;;;;4971964;28;20098;-70
2022/02/04 15:06:37;;;;;;;23.15;8.35;;;;;;;;;;4980854;28;20055;-68
2022/02/04 15:09:09;;;;;;;5.95;2.13;;;;;;;;;;4973584;28;20445;-69
2022/02/04 15:11:42;;;;;;;0.98;0.70;;;;;;;;;;4970510;28;20054;-71
2022/02/04 15:14:11;;;;;;;2.53;1.08;;;;;;;;;;4972891;28;20047;-70
2022/02/04 15:16:38;;;;;;;0.75;0.75;;;;;;;;;;4973589;28;20055;-68
2022/02/04 15:19:05;;;;;;;11.15;1.38;;;;;;;;;;4973554;28;20568;-67
2022/02/04 15:21:32;;;;;;;0.50;0.50;;;;;;;;;;4973326;28;20050;-67
2022/02/04 15:23:59;;;;;;;0.70;0.70;;;;;;;;;;4973029;28;20065;-68
2022/02/04 15:26:28;;;;;;;0.77;0.70;;;;;;;;;;4973392;28;20054;-68
2022/02/04 15:29:00;;;;;;;2.88;0.40;;;;;;;;;;4973690;28;20097;-68
2022/02/04 15:34:09;;;;;;;1.27;0.70;;;;;;;;;;4973163;28;20421;-68
2022/02/04 15:36:42;;;;;;;0.73;0.50;;;;;;;;;;4973501;28;20051;-68
2022/02/04 15:39:17;;;;;;;0.90;0.70;;;;;;;;;;4972778;28;20529;-69
2022/02/04 15:41:46;;;;;;;0.80;0.80;;;;;;;;;;4972040;28;20059;-69
2022/02/04 15:44:21;;;;;;;1.45;1.02;;;;;;;;;;4971255;28;20054;-69
2022/02/04 16:03:01;;;;;;;1.35;1.00;;;;;;;;;;4969319;28;20537;-67
2022/02/04 16:05:30;;;;;;;2.75;2.03;;;;;;;;;;4981445;28;20055;-68
2022/02/04 16:07:57;;;;;;;3.20;2.75;;;;;;;;;;4970094;28;20047;-67
2022/02/04 16:10:32;;;;;;;1.20;0.75;;;;;;;;;;4971012;28;20414;-66
2022/02/04 16:13:14;;;;;;;0.80;0.63;;;;;;;;;;4970497;28;20055;-67
2022/02/04 16:15:53;;;;;;;0.73;0.70;;;;;;;;;;4971030;28;21144;-68
2022/02/04 16:18:25;;;;;;;1.13;0.70;;;;;;;;;;4965866;28;20065;-66
2022/02/04 16:21:05;;;;;;;3.00;0.60;;;;;;;;;;4969998;28;20046;-67
2022/02/04 16:23:46;;;;;;;0.70;0.60;;;;;;;;;;4970379;28;20043;-67
2022/02/04 16:28:52;;;;;;;2.88;2.20;;;;;;;;;;4970689;28;20101;-66
2022/02/04 16:31:19;;;;;;;4.25;3.42;;;;;;;;;;4970251;28;20051;-67
2022/02/04 16:33:47;;;;;;;2.78;1.95;;;;;;;;;;4967324;28;20055;-66
2022/02/04 16:36:16;;;;;;;3.90;2.03;;;;;;;;;;4971212;28;20048;-68
2022/02/04 16:38:51;;;;;;;3.28;1.50;;;;;;;;;;4970844;28;20042;-67
2022/02/04 16:41:25;;;;;;;1.17;0.95;;;;;;;;;;4971053;28;20050;-66
2022/02/04 16:43:52;;;;;;;2.10;0.82;;;;;;;;;;4970227;28;20054;-66
2022/02/04 16:46:19;;;;;;;1.33;0.90;;;;;;;;;;4971089;28;20066;-65
2022/02/04 16:48:45;;;;;;;1.13;1.00;;;;;;;;;;4970394;28;20042;-68
2022/02/04 16:51:13;;;;;;;1.45;0.68;;;;;;;;;;4970829;28;20073;-66
2022/02/04 16:53:44;;;;;;;2.25;1.40;;;;;;;;;;4970485;28;20166;-66
2022/02/04 16:56:11;;;;;;;1.90;1.40;;;;;;;;;;4970935;28;20050;-65
2022/02/04 16:58:37;;;;;;;1.52;1.35;;;;;;;;;;4970787;28;20565;-66
2022/02/04 17:01:04;;;;;;;3.58;3.03;;;;;;;;;;4969201;28;20292;-69
2022/02/04 17:03:31;;;;;;;1.48;1.38;;;;;;;;;;4970311;28;20453;-71
2022/02/04 17:06:02;;;;;;;1.45;1.35;;;;;;;;;;4969864;28;20592;-68
2022/02/04 17:08:45;;;;;;;2.65;2.33;;;;;;;;;;4969594;28;20560;-68
2022/02/04 17:11:29;;;;;;;4.38;3.90;;;;;;;;;;4970143;28;20106;-69
2022/02/04 17:13:56;;;;;;;3.13;2.72;;;;;;;;;;4969173;28;20063;-69
2022/02/04 17:16:23;;;;;;;1.50;1.00;;;;;;;;;;4969537;28;20429;-69
2022/02/04 17:18:55;;;;;;;1.48;0.60;;;;;;;;;;4968691;28;20472;-69
2022/02/04 17:21:24;;;;;;;0.95;0.70;;;;;;;;;;4976410;28;20057;-68
2022/02/04 17:23:54;;;;;;;2.95;1.15;;;;;;;;;;4967859;28;20051;-68
2022/02/04 17:26:22;;;;;;;2.28;1.52;;;;;;;;;;4969306;28;20046;-69
2022/02/04 17:28:50;;;;;;;0.70;0.60;;;;;;;;;;4970160;28;20054;-68
2022/02/04 17:31:17;;;;;;;0.95;0.70;;;;;;;;;;4969585;28;20081;-69
2022/02/04 17:33:44;;;;;;;1.45;1.10;;;;;;;;;;4966177;28;20062;-68
2022/02/04 17:36:11;;;;;;;0.60;0.60;;;;;;;;;;4969537;28;20066;-68
2022/02/04 17:38:37;;;;;;;0.95;0.70;;;;;;;;;;4969198;28;20058;-69
2022/02/04 17:41:06;;;;;;;1.80;0.55;;;;;;;;;;4967524;28;20576;-68
2022/02/04 17:43:33;;;;;;;1.58;0.57;;;;;;;;;;4977826;28;20055;-68
2022/02/04 17:46:00;;;;;;;0.93;0.50;;;;;;;;;;4969678;28;20058;-68
2022/02/04 17:48:37;;;;;;;1.58;0.57;;;;;;;;;;4969340;28;20106;-69
2022/02/04 17:53:53;;;;;;;0.90;0.80;;;;;;;;;;4969125;28;20671;-69
2022/02/04 17:56:31;;;;;;;1.88;0.90;;;;;;;;;;4969560;28;20597;-70
2022/02/04 17:59:10;;;;;;;3.33;1.10;;;;;;;;;;4968191;28;20047;-67
2022/02/04 18:07:24;;;;;;;1.42;1.10;;;;;;;;;;4967188;28;20070;-67
2022/02/04 18:09:45;;;;;;;1.00;0.90;;;;;;;;;;4967246;28;20054;-69
2022/02/04 18:12:13;;;;;;;2.25;0.93;;;;;;;;;;4967469;28;20450;-68
2022/02/04 18:14:42;;;;;;;0.90;0.70;;;;;;;;;;4969011;28;20700;-68
2022/02/04 18:17:08;;;;;;;1.02;0.82;;;;;;;;;;4967910;28;20121;-67
2022/02/04 18:19:35;;;;;;;1.10;0.90;;;;;;;;;;4968477;28;20090;-66
2022/02/04 18:22:02;;;;;;;1.40;0.90;;;;;;;;;;4968953;28;20514;-68
2022/02/04 18:24:28;;;;;;;2.28;1.63;;;;;;;;;;4969172;28;20054;-69
2022/02/04 18:26:55;;;;;;;4.10;1.63;;;;;;;;;;4969173;28;20051;-67
2022/02/04 18:29:22;;;;;;;4.13;1.70;;;;;;;;;;4969383;28;20126;-66
2022/02/04 18:31:48;;;;;;;2.72;1.30;;;;;;;;;;4970754;28;20051;-66
2022/02/04 18:34:17;;;;;;;3.38;1.63;;;;;;;;;;4972520;28;20086;-67
2022/02/04 18:36:45;;;;;;;2.08;1.27;;;;;;;;;;4972317;28;20133;-66
2022/02/04 18:44:15;;;;;;;2.05;1.23;;;;;;;;;;4972566;28;20086;-68
2022/02/04 18:49:27;;;;;;;1.75;1.25;;;;;;;;;;4969051;28;20102;-69
2022/02/04 18:59:27;;;;;;;2.95;1.98;;;;;;;;;;4971509;28;20409;-68
2022/02/04 19:01:54;;;;;;;2.40;1.80;;;;;;;;;;4972080;28;20449;-71
2022/02/04 19:04:30;;;;;;;4.65;2.03;;;;;;;;;;4978739;28;20478;-69
2022/02/04 19:07:03;;;;;;;1.60;1.13;;;;;;;;;;4971625;28;20414;-67
2022/02/04 19:09:29;;;;;;;1.13;1.00;;;;;;;;;;4968335;28;20469;-68
2022/02/04 19:12:03;;;;;;;2.45;1.10;;;;;;;;;;4971073;28;20094;-67
2022/02/04 19:17:25;;;;;;;4.13;2.78;;;;;;;;;;4971385;28;20058;-69
2022/02/04 19:22:38;;;;;;;2.72;1.33;;;;;;;;;;4971917;28;21171;-67
2022/02/04 19:25:11;;;;;;;2.80;1.25;;;;;;;;;;4966746;28;20042;-67
2022/02/04 19:27:38;;;;;;;2.37;1.20;;;;;;;;;;4971005;28;20469;-68
2022/02/04 19:30:09;;;;;;;2.35;1.60;;;;;;;;;;4968466;28;20043;-67
2022/02/04 19:32:36;;;;;;;1.85;1.20;;;;;;;;;;4970890;28;20050;-68
2022/02/04 19:35:03;;;;;;;2.25;1.33;;;;;;;;;;4969921;28;20082;-68
2022/02/04 19:37:30;;;;;;;1.70;1.00;;;;;;;;;;4969697;28;20110;-69
2022/02/04 19:39:57;;;;;;;0.90;0.80;;;;;;;;;;4971225;28;20482;-68
2022/02/04 19:42:27;;;;;;;2.95;1.45;;;;;;;;;;4971435;28;20051;-68
2022/02/04 19:44:58;;;;;;;3.92;2.10;;;;;;;;;;4968862;28;20055;-69
2022/02/04 19:47:30;;;;;;;3.13;1.60;;;;;;;;;;4971007;28;20046;-67
2022/02/04 20:25:15;;;;;;;4.85;1.60;;;;;;;;;;4969746;28;20117;-67
2022/02/04 20:27:43;;;;;;;4.07;2.38;;;;;;;;;;4970183;28;20560;-66
2022/02/04 20:30:10;;;;;;;2.13;1.38;;;;;;;;;;4969696;28;20047;-66
2022/02/04 20:32:38;;;;;;;1.50;1.20;;;;;;;;;;4970162;28;20063;-67
2022/02/04 20:35:05;;;;;;;1.77;0.90;;;;;;;;;;4970027;28;20042;-66
2022/02/04 20:37:32;;;;;;;1.20;1.10;;;;;;;;;;4968320;28;20054;-66
2022/02/04 20:40:27;;;;;;;1.02;0.93;;;;;;;;;;4970065;28;20047;-67
2022/02/04 20:42:47;;;;;;;1.55;0.90;;;;;;;;;;4969380;28;20050;-67
2022/02/04 20:45:14;;;;;;;0.90;0.77;;;;;;;;;;4966697;28;20102;-67
2022/02/04 20:47:45;;;;;;;1.73;0.73;;;;;;;;;;4970268;28;20067;-66
2022/02/04 20:50:13;;;;;;;1.45;0.80;;;;;;;;;;4969736;28;20050;-66
2022/02/04 20:52:39;;;;;;;1.48;0.60;;;;;;;;;;4969446;28;20054;-66
2022/02/04 20:55:07;;;;;;;1.17;0.63;;;;;;;;;;4969599;28;20519;-65
2022/02/04 20:57:36;;;;;;;1.17;0.70;;;;;;;;;;4999909;23;20096;-66
2022/02/04 21:00:09;;;;;;;1.30;0.73;;;;;;;;;;4977476;28;20078;-67
2022/02/04 21:02:37;;;;;;;0.85;0.55;;;;;;;;;;4977125;28;20132;-67
2022/02/04 21:05:05;;;;;;;1.00;0.70;;;;;;;;;;4982625;28;20051;-68
2022/02/04 21:15:16;;;;;;;1.00;0.55;;;;;;;;;;4981023;28;20054;-69
2022/02/04 21:17:45;;;;;;;1.35;0.68;;;;;;;;;;4982026;28;20685;-69
2022/02/04 21:20:16;;;;;;;2.75;0.98;;;;;;;;;;4976970;28;20051;-66
2022/02/04 21:22:42;;;;;;;1.27;0.70;;;;;;;;;;4972653;28;20050;-66
2022/02/04 21:25:10;;;;;;;1.73;0.90;;;;;;;;;;4972828;28;20363;-68
2022/02/04 21:27:40;;;;;;;2.17;0.73;;;;;;;;;;4972955;28;20055;-68
2022/02/04 21:30:10;;;;;;;0.85;0.73;;;;;;;;;;4973131;28;20051;-67
2022/02/04 21:32:42;;;;;;;0.80;0.75;;;;;;;;;;4972810;28;20514;-67
2022/02/04 21:37:54;;;;;;;1.48;0.80;;;;;;;;;;4972961;28;20058;-67
2022/02/04 21:40:21;;;;;;;1.65;0.75;;;;;;;;;;4972949;28;20046;-67
2022/02/04 21:42:48;;;;;;;0.57;0.55;;;;;;;;;;4972798;28;20050;-68
2022/02/04 21:45:15;;;;;;;2.53;0.85;;;;;;;;;;4972844;28;20058;-67
2022/02/04 21:47:51;;;;;;;1.75;1.00;;;;;;;;;;4972749;28;20086;-67
2022/02/04 21:50:18;;;;;;;1.35;0.82;;;;;;;;;;4971743;28;20047;-67
2022/02/04 21:52:45;;;;;;;4.45;1.58;;;;;;;;;;4972630;28;20489;-67
2022/02/04 21:55:12;;;;;;;8.00;0.90;;;;;;;;;;4972613;28;20415;-68
2022/02/04 21:57:39;;;;;;;1.65;0.82;;;;;;;;;;4972608;28;20105;-68
2022/02/04 22:00:07;;;;;;;4.45;1.58;;;;;;;;;;4972659;28;20082;-68
2022/02/04 22:02:34;;;;;;;1.02;0.70;;;;;;;;;;4972439;28;20054;-67
2022/02/04 22:05:02;;;;;;;1.50;0.75;;;;;;;;;;4975981;28;20092;-67
2022/02/04 22:07:35;;;;;;;2.15;0.55;;;;;;;;;;4976593;28;20046;-67
2022/02/04 22:23:09;;;;;;;0.93;0.80;;;;;;;;;;4974614;28;20051;-67
2022/02/04 22:25:36;;;;;;;1.98;1.35;;;;;;;;;;4976329;28;20694;-68
2022/02/04 22:28:03;;;;;;;1.67;0.93;;;;;;;;;;4975876;28;20578;-68
2022/02/04 22:30:29;;;;;;;0.98;0.90;;;;;;;;;;4976110;28;20047;-67
2022/02/04 22:33:06;;;;;;;1.80;1.15;;;;;;;;;;4975526;28;20102;-67
2022/02/04 22:41:11;;;;;;;1.10;0.98;;;;;;;;;;4975737;28;20473;-67
2022/02/04 22:59:23;;;;;;;3.67;1.15;;;;;;;;;;4975525;28;20096;-67
2022/02/04 23:01:50;;;;;;;1.23;1.00;;;;;;;;;;4975514;28;20098;-67
2022/02/04 23:04:21;;;;;;;2.00;1.10;;;;;;;;;;4975130;28;20089;-67
2022/02/04 23:06:49;;;;;;;3.85;1.23;;;;;;;;;;4975304;28;20051;-67
2022/02/04 23:09:27;;;;;;;2.13;1.40;;;;;;;;;;4975229;28;20078;-67
2022/02/04 23:11:54;;;;;;;1.42;1.10;;;;;;;;;;4975515;28;20548;-68
2022/02/04 23:14:32;;;;;;;1.63;1.33;;;;;;;;;;4975159;28;20106;-67
2022/02/04 23:17:06;;;;;;;1.13;0.80;;;;;;;;;;4974706;28;20047;-66
2022/02/04 23:19:49;;;;;;;1.40;0.60;;;;;;;;;;4975200;28;20109;-66
2022/02/04 23:22:20;;;;;;;0.82;0.63;;;;;;;;;;4975054;28;20047;-67
2022/02/04 23:27:41;;;;;;;1.05;0.70;;;;;;;;;;4975169;28;20086;-67
2022/02/04 23:49:56;;;;;;;0.43;0.40;;;;;;;;;;4914895;29;20048;-66
2022/02/04 23:52:32;;;;;;;0.70;0.50;;;;;;;;;;4914922;29;20047;-66
2022/02/04 23:55:00;;;;;;;0.88;0.55;;;;;;;;;;4958052;28;20098;-67
2022/02/04 23:57:36;;;;;;;1.00;0.57;;;;;;;;;;4974455;28;20050;-67
